sensor_id;sensor_type;location;lat;lon;timestamp;pressure;altitude;pressure_sealevel;temperature;humidity
34205;BME280;20471;49.680;20.074;2023-04-06T00:02:03;97423.12;;;0.21;61.47
34205;BME280;20471;49.680;20.074;2023-04-06T00:04:31;97422.39;;;0.22;61.41
34205;BME280;20471;49.680;20.074;2023-04-06T00:07:00;97418.60;;;0.21;61.33
34205;BME280;20471;49.680;20.074;2023-04-06T00:09:28;97420.39;;;0.20;61.24
34205;BME280;20471;49.680;20.074;2023-04-06T00:11:56;97418.83;;;0.20;61.21
34205;BME280;20471;49.680;20.074;2023-04-06T00:14:24;97419.63;;;0.19;61.37
34205;BME280;20471;49.680;20.074;2023-04-06T00:16:52;97412.68;;;0.18;61.41
34205;BME280;20471;49.680;20.074;2023-04-06T00:19:20;97414.41;;;0.16;61.37
34205;BME280;20471;49.680;20.074;2023-04-06T00:21:48;97412.69;;;0.14;61.45
34205;BME280;20471;49.680;20.074;2023-04-06T00:24:16;97412.92;;;0.11;61.43
34205;BME280;20471;49.680;20.074;2023-04-06T00:26:44;97410.61;;;0.08;61.46
34205;BME280;20471;49.680;20.074;2023-04-06T00:29:12;97405.66;;;0.04;61.40
34205;BME280;20471;49.680;20.074;2023-04-06T00:31:40;97402.93;;;0.01;61.50
34205;BME280;20471;49.680;20.074;2023-04-06T00:34:09;97403.86;;;-0.03;61.66
34205;BME280;20471;49.680;20.074;2023-04-06T00:36:37;97400.32;;;-0.06;61.57
34205;BME280;20471;49.680;20.074;2023-04-06T00:39:05;97404.32;;;-0.10;61.51
34205;BME280;20471;49.680;20.074;2023-04-06T00:41:33;97399.81;;;-0.11;61.49
34205;BME280;20471;49.680;20.074;2023-04-06T00:44:01;97398.13;;;-0.11;61.40
34205;BME280;20471;49.680;20.074;2023-04-06T00:46:30;97395.92;;;-0.14;61.54
34205;BME280;20471;49.680;20.074;2023-04-06T00:48:58;97395.73;;;-0.16;61.49
34205;BME280;20471;49.680;20.074;2023-04-06T00:51:26;97390.73;;;-0.19;61.92
34205;BME280;20471;49.680;20.074;2023-04-06T00:53:54;97391.98;;;-0.23;61.99
34205;BME280;20471;49.680;20.074;2023-04-06T00:56:22;97389.95;;;-0.28;62.00
34205;BME280;20471;49.680;20.074;2023-04-06T00:58:50;97389.73;;;-0.33;61.78
34205;BME280;20471;49.680;20.074;2023-04-06T01:01:18;97392.22;;;-0.39;61.79
34205;BME280;20471;49.680;20.074;2023-04-06T01:03:46;97395.59;;;-0.39;61.85
34205;BME280;20471;49.680;20.074;2023-04-06T01:06:16;97391.91;;;-0.39;61.76
34205;BME280;20471;49.680;20.074;2023-04-06T01:08:44;97388.53;;;-0.43;61.77
34205;BME280;20471;49.680;20.074;2023-04-06T01:11:12;97387.95;;;-0.46;61.74
34205;BME280;20471;49.680;20.074;2023-04-06T01:13:40;97389.34;;;-0.49;61.93
34205;BME280;20471;49.680;20.074;2023-04-06T01:16:08;97385.55;;;-0.52;62.12
34205;BME280;20471;49.680;20.074;2023-04-06T01:18:37;97384.34;;;-0.57;62.31
34205;BME280;20471;49.680;20.074;2023-04-06T01:21:06;97386.14;;;-0.60;62.35
34205;BME280;20471;49.680;20.074;2023-04-06T01:23:35;97388.92;;;-0.64;62.29
34205;BME280;20471;49.680;20.074;2023-04-06T01:26:03;97388.89;;;-0.67;62.40
34205;BME280;20471;49.680;20.074;2023-04-06T01:28:31;97389.05;;;-0.72;62.60
34205;BME280;20471;49.680;20.074;2023-04-06T01:30:59;97387.73;;;-0.77;62.78
34205;BME280;20471;49.680;20.074;2023-04-06T01:33:27;97385.80;;;-0.81;62.81
34205;BME280;20471;49.680;20.074;2023-04-06T01:35:55;97387.80;;;-0.86;63.01
34205;BME280;20471;49.680;20.074;2023-04-06T01:38:23;97382.70;;;-0.95;63.05
34205;BME280;20471;49.680;20.074;2023-04-06T01:40:53;97382.52;;;-1.03;62.99
34205;BME280;20471;49.680;20.074;2023-04-06T01:43:21;97381.49;;;-1.08;63.03
34205;BME280;20471;49.680;20.074;2023-04-06T01:45:49;97382.52;;;-1.13;63.14
34205;BME280;20471;49.680;20.074;2023-04-06T01:48:18;97378.74;;;-1.16;63.09
34205;BME280;20471;49.680;20.074;2023-04-06T01:50:46;97379.57;;;-1.20;63.20
34205;BME280;20471;49.680;20.074;2023-04-06T01:53:14;97380.59;;;-1.23;63.16
34205;BME280;20471;49.680;20.074;2023-04-06T01:55:43;97376.02;;;-1.27;63.16
34205;BME280;20471;49.680;20.074;2023-04-06T01:58:11;97374.28;;;-1.35;63.27
34205;BME280;20471;49.680;20.074;2023-04-06T02:00:40;97373.93;;;-1.41;63.44
34205;BME280;20471;49.680;20.074;2023-04-06T02:03:08;97374.29;;;-1.43;63.47
34205;BME280;20471;49.680;20.074;2023-04-06T02:05:36;97375.05;;;-1.45;63.59
34205;BME280;20471;49.680;20.074;2023-04-06T02:08:04;97378.20;;;-1.47;63.76
34205;BME280;20471;49.680;20.074;2023-04-06T02:10:33;97380.70;;;-1.51;63.68
34205;BME280;20471;49.680;20.074;2023-04-06T02:13:02;97375.88;;;-1.55;63.84
34205;BME280;20471;49.680;20.074;2023-04-06T02:15:30;97373.55;;;-1.58;63.93
34205;BME280;20471;49.680;20.074;2023-04-06T02:17:58;97371.45;;;-1.64;63.98
34205;BME280;20471;49.680;20.074;2023-04-06T02:20:27;97370.27;;;-1.67;64.04
34205;BME280;20471;49.680;20.074;2023-04-06T02:22:58;97369.86;;;-1.68;64.19
34205;BME280;20471;49.680;20.074;2023-04-06T02:25:26;97366.27;;;-1.71;64.20
34205;BME280;20471;49.680;20.074;2023-04-06T02:27:54;97366.02;;;-1.72;64.21
34205;BME280;20471;49.680;20.074;2023-04-06T02:30:22;97365.94;;;-1.73;64.29
34205;BME280;20471;49.680;20.074;2023-04-06T02:32:50;97366.11;;;-1.73;64.59
34205;BME280;20471;49.680;20.074;2023-04-06T02:35:19;97366.24;;;-1.75;64.49
34205;BME280;20471;49.680;20.074;2023-04-06T02:37:47;97368.39;;;-1.75;64.47
34205;BME280;20471;49.680;20.074;2023-04-06T02:40:15;97370.08;;;-1.76;64.48
34205;BME280;20471;49.680;20.074;2023-04-06T02:42:43;97369.68;;;-1.78;64.40
34205;BME280;20471;49.680;20.074;2023-04-06T02:45:11;97371.12;;;-1.84;64.43
34205;BME280;20471;49.680;20.074;2023-04-06T02:47:39;97371.92;;;-1.93;64.52
34205;BME280;20471;49.680;20.074;2023-04-06T02:50:07;97376.10;;;-1.97;64.64
34205;BME280;20471;49.680;20.074;2023-04-06T02:52:35;97374.34;;;-1.99;64.79
34205;BME280;20471;49.680;20.074;2023-04-06T02:55:03;97374.67;;;-2.03;64.86
34205;BME280;20471;49.680;20.074;2023-04-06T02:57:34;97376.11;;;-2.05;64.94
34205;BME280;20471;49.680;20.074;2023-04-06T03:00:02;97374.45;;;-2.04;64.98
34205;BME280;20471;49.680;20.074;2023-04-06T03:02:30;97371.66;;;-2.04;65.02
34205;BME280;20471;49.680;20.074;2023-04-06T03:04:59;97371.94;;;-2.06;65.09
34205;BME280;20471;49.680;20.074;2023-04-06T03:07:27;97379.35;;;-2.07;65.14
34205;BME280;20471;49.680;20.074;2023-04-06T03:09:55;97374.89;;;-2.09;65.09
34205;BME280;20471;49.680;20.074;2023-04-06T03:12:23;97379.08;;;-2.08;65.19
34205;BME280;20471;49.680;20.074;2023-04-06T03:14:51;97380.66;;;-2.08;65.25
34205;BME280;20471;49.680;20.074;2023-04-06T03:17:19;97382.47;;;-2.09;65.28
34205;BME280;20471;49.680;20.074;2023-04-06T03:19:47;97382.09;;;-2.11;65.25
34205;BME280;20471;49.680;20.074;2023-04-06T03:22:15;97386.96;;;-2.12;65.28
34205;BME280;20471;49.680;20.074;2023-04-06T03:24:43;97387.95;;;-2.13;65.33
34205;BME280;20471;49.680;20.074;2023-04-06T03:27:11;97385.86;;;-2.13;65.44
34205;BME280;20471;49.680;20.074;2023-04-06T03:29:39;97387.33;;;-2.14;65.42
34205;BME280;20471;49.680;20.074;2023-04-06T03:32:07;97390.36;;;-2.14;65.42
34205;BME280;20471;49.680;20.074;2023-04-06T03:34:37;97389.13;;;-2.16;65.46
34205;BME280;20471;49.680;20.074;2023-04-06T03:37:05;97390.45;;;-2.17;65.44
34205;BME280;20471;49.680;20.074;2023-04-06T03:39:33;97390.86;;;-2.18;65.50
34205;BME280;20471;49.680;20.074;2023-04-06T03:42:01;97394.40;;;-2.18;65.60
34205;BME280;20471;49.680;20.074;2023-04-06T03:44:29;97394.09;;;-2.19;65.71
34205;BME280;20471;49.680;20.074;2023-04-06T03:46:58;97391.20;;;-2.20;65.79
34205;BME280;20471;49.680;20.074;2023-04-06T03:49:26;97389.89;;;-2.23;65.82
34205;BME280;20471;49.680;20.074;2023-04-06T03:51:56;97388.70;;;-2.26;65.87
34205;BME280;20471;49.680;20.074;2023-04-06T03:54:24;97386.59;;;-2.26;65.93
34205;BME280;20471;49.680;20.074;2023-04-06T03:56:52;97392.59;;;-2.26;65.87
34205;BME280;20471;49.680;20.074;2023-04-06T03:59:20;97393.41;;;-2.25;65.83
34205;BME280;20471;49.680;20.074;2023-04-06T04:01:48;97394.99;;;-2.25;65.90
34205;BME280;20471;49.680;20.074;2023-04-06T04:04:16;97395.35;;;-2.25;65.95
34205;BME280;20471;49.680;20.074;2023-04-06T04:06:44;97395.94;;;-2.26;65.94
34205;BME280;20471;49.680;20.074;2023-04-06T04:09:12;97397.95;;;-2.25;66.04
34205;BME280;20471;49.680;20.074;2023-04-06T04:11:40;97396.36;;;-2.25;66.01
34205;BME280;20471;49.680;20.074;2023-04-06T04:14:08;97395.05;;;-2.24;66.01
34205;BME280;20471;49.680;20.074;2023-04-06T04:16:36;97393.27;;;-2.24;66.05
34205;BME280;20471;49.680;20.074;2023-04-06T04:19:05;97391.77;;;-2.25;66.07
34205;BME280;20471;49.680;20.074;2023-04-06T04:21:34;97388.61;;;-2.29;66.11
34205;BME280;20471;49.680;20.074;2023-04-06T04:24:02;97388.45;;;-2.29;66.28
34205;BME280;20471;49.680;20.074;2023-04-06T04:26:30;97386.38;;;-2.27;66.25
34205;BME280;20471;49.680;20.074;2023-04-06T04:28:58;97387.34;;;-2.24;66.32
34205;BME280;20471;49.680;20.074;2023-04-06T04:31:26;97381.72;;;-2.22;66.38
34205;BME280;20471;49.680;20.074;2023-04-06T04:33:54;97382.77;;;-2.20;66.46
34205;BME280;20471;49.680;20.074;2023-04-06T04:36:22;97386.19;;;-2.19;66.53
34205;BME280;20471;49.680;20.074;2023-04-06T04:38:52;97382.81;;;-2.17;66.56
34205;BME280;20471;49.680;20.074;2023-04-06T04:41:20;97380.84;;;-2.14;66.49
34205;BME280;20471;49.680;20.074;2023-04-06T04:43:48;97385.98;;;-2.13;66.40
34205;BME280;20471;49.680;20.074;2023-04-06T04:46:16;97389.91;;;-2.11;66.42
34205;BME280;20471;49.680;20.074;2023-04-06T04:48:44;97393.11;;;-2.11;66.42
34205;BME280;20471;49.680;20.074;2023-04-06T04:51:12;97391.84;;;-2.09;66.43
34205;BME280;20471;49.680;20.074;2023-04-06T04:53:40;97393.39;;;-2.07;66.53
34205;BME280;20471;49.680;20.074;2023-04-06T04:56:08;97389.29;;;-2.04;66.56
34205;BME280;20471;49.680;20.074;2023-04-06T04:58:36;97382.86;;;-2.03;66.53
34205;BME280;20471;49.680;20.074;2023-04-06T05:01:04;97380.05;;;-2.02;66.49
34205;BME280;20471;49.680;20.074;2023-04-06T05:03:32;97382.66;;;-1.99;66.52
34205;BME280;20471;49.680;20.074;2023-04-06T05:06:02;97379.09;;;-1.97;66.53
34205;BME280;20471;49.680;20.074;2023-04-06T05:08:30;97374.24;;;-1.94;66.62
34205;BME280;20471;49.680;20.074;2023-04-06T05:10:58;97374.69;;;-1.91;66.65
34205;BME280;20471;49.680;20.074;2023-04-06T05:13:26;97378.95;;;-1.87;66.69
34205;BME280;20471;49.680;20.074;2023-04-06T05:15:54;97376.65;;;-1.83;66.66
34205;BME280;20471;49.680;20.074;2023-04-06T05:18:22;97376.26;;;-1.78;66.70
34205;BME280;20471;49.680;20.074;2023-04-06T05:20:51;97374.34;;;-1.75;66.71
34205;BME280;20471;49.680;20.074;2023-04-06T05:23:19;97370.74;;;-1.72;66.65
34205;BME280;20471;49.680;20.074;2023-04-06T05:25:47;97371.35;;;-1.67;66.82
34205;BME280;20471;49.680;20.074;2023-04-06T05:28:15;97371.39;;;-1.67;66.66
34205;BME280;20471;49.680;20.074;2023-04-06T05:30:44;97371.83;;;-1.72;66.51
34205;BME280;20471;49.680;20.074;2023-04-06T05:33:12;97373.53;;;-1.69;66.64
34205;BME280;20471;49.680;20.074;2023-04-06T05:35:40;97374.90;;;-1.63;66.77
34205;BME280;20471;49.680;20.074;2023-04-06T05:38:08;97374.30;;;-1.60;66.72
34205;BME280;20471;49.680;20.074;2023-04-06T05:40:37;97372.80;;;-1.56;66.80
34205;BME280;20471;49.680;20.074;2023-04-06T05:43:07;97373.45;;;-1.47;66.79
34205;BME280;20471;49.680;20.074;2023-04-06T05:45:35;97374.42;;;-1.40;66.68
34205;BME280;20471;49.680;20.074;2023-04-06T05:48:04;97374.30;;;-1.35;66.60
34205;BME280;20471;49.680;20.074;2023-04-06T05:50:32;97371.96;;;-1.29;66.47
34205;BME280;20471;49.680;20.074;2023-04-06T05:53:00;97368.44;;;-1.23;66.32
34205;BME280;20471;49.680;20.074;2023-04-06T05:55:28;97366.36;;;-1.18;66.15
34205;BME280;20471;49.680;20.074;2023-04-06T05:57:56;97366.67;;;-1.14;66.02
34205;BME280;20471;49.680;20.074;2023-04-06T06:00:24;97372.07;;;-1.11;65.98
34205;BME280;20471;49.680;20.074;2023-04-06T06:02:52;97371.73;;;-1.15;65.96
34205;BME280;20471;49.680;20.074;2023-04-06T06:05:21;97371.93;;;-1.19;65.94
34205;BME280;20471;49.680;20.074;2023-04-06T06:07:49;97372.35;;;-1.18;65.97
34205;BME280;20471;49.680;20.074;2023-04-06T06:10:17;97374.70;;;-1.16;66.00
34205;BME280;20471;49.680;20.074;2023-04-06T06:12:45;97373.11;;;-1.11;66.14
34205;BME280;20471;49.680;20.074;2023-04-06T06:15:13;97371.48;;;-1.04;66.06
34205;BME280;20471;49.680;20.074;2023-04-06T06:17:41;97375.17;;;-1.02;65.96
34205;BME280;20471;49.680;20.074;2023-04-06T06:20:10;97369.48;;;-1.00;65.95
34205;BME280;20471;49.680;20.074;2023-04-06T06:22:38;97374.02;;;-0.93;65.82
34205;BME280;20471;49.680;20.074;2023-04-06T06:25:06;97371.79;;;-0.86;65.96
34205;BME280;20471;49.680;20.074;2023-04-06T06:27:35;97370.71;;;-0.81;65.90
34205;BME280;20471;49.680;20.074;2023-04-06T06:30:03;97370.52;;;-0.77;65.65
34205;BME280;20471;49.680;20.074;2023-04-06T06:32:32;97371.45;;;-0.77;65.60
34205;BME280;20471;49.680;20.074;2023-04-06T06:35:00;97371.59;;;-0.71;65.50
34205;BME280;20471;49.680;20.074;2023-04-06T06:37:29;97373.21;;;-0.64;65.45
34205;BME280;20471;49.680;20.074;2023-04-06T06:39:57;97374.42;;;-0.56;65.42
34205;BME280;20471;49.680;20.074;2023-04-06T06:42:25;97373.27;;;-0.49;65.24
34205;BME280;20471;49.680;20.074;2023-04-06T06:44:54;97370.30;;;-0.45;65.07
34205;BME280;20471;49.680;20.074;2023-04-06T06:47:22;97367.31;;;-0.41;64.60
34205;BME280;20471;49.680;20.074;2023-04-06T06:49:50;97361.99;;;-0.37;64.39
34205;BME280;20471;49.680;20.074;2023-04-06T06:52:18;97357.63;;;-0.33;64.22
34205;BME280;20471;49.680;20.074;2023-04-06T06:54:46;97358.55;;;-0.30;64.00
34205;BME280;20471;49.680;20.074;2023-04-06T06:57:14;97359.82;;;-0.27;63.81
34205;BME280;20471;49.680;20.074;2023-04-06T06:59:42;97359.92;;;-0.24;63.72
34205;BME280;20471;49.680;20.074;2023-04-06T07:02:11;97361.96;;;-0.22;63.62
34205;BME280;20471;49.680;20.074;2023-04-06T07:04:39;97361.38;;;-0.23;63.41
34205;BME280;20471;49.680;20.074;2023-04-06T07:07:07;97361.98;;;-0.20;63.24
34205;BME280;20471;49.680;20.074;2023-04-06T07:09:36;97362.83;;;-0.16;63.12
34205;BME280;20471;49.680;20.074;2023-04-06T07:12:04;97360.84;;;-0.12;62.90
34205;BME280;20471;49.680;20.074;2023-04-06T07:14:32;97364.52;;;-0.08;62.72
34205;BME280;20471;49.680;20.074;2023-04-06T07:17:00;97363.78;;;-0.04;62.72
34205;BME280;20471;49.680;20.074;2023-04-06T07:19:28;97363.55;;;-0.05;62.74
34205;BME280;20471;49.680;20.074;2023-04-06T07:21:56;97364.98;;;-0.07;62.67
34205;BME280;20471;49.680;20.074;2023-04-06T07:24:24;97367.98;;;-0.05;62.48
34205;BME280;20471;49.680;20.074;2023-04-06T07:26:53;97365.66;;;-0.08;62.31
34205;BME280;20471;49.680;20.074;2023-04-06T07:29:22;97368.54;;;-0.09;62.39
34205;BME280;20471;49.680;20.074;2023-04-06T07:31:50;97366.46;;;-0.06;62.33
34205;BME280;20471;49.680;20.074;2023-04-06T07:34:19;97373.92;;;-0.08;62.04
34205;BME280;20471;49.680;20.074;2023-04-06T07:36:47;97368.34;;;-0.14;61.83
34205;BME280;20471;49.680;20.074;2023-04-06T07:39:15;97365.82;;;-0.17;62.01
34205;BME280;20471;49.680;20.074;2023-04-06T07:41:43;97368.08;;;-0.19;61.83
34205;BME280;20471;49.680;20.074;2023-04-06T07:44:12;97362.39;;;-0.18;61.82
34205;BME280;20471;49.680;20.074;2023-04-06T07:46:40;97357.89;;;-0.12;61.77
34205;BME280;20471;49.680;20.074;2023-04-06T07:49:08;97357.06;;;-0.15;61.71
34205;BME280;20471;49.680;20.074;2023-04-06T07:51:37;97355.11;;;-0.11;61.78
34205;BME280;20471;49.680;20.074;2023-04-06T07:54:06;97356.69;;;-0.05;61.47
34205;BME280;20471;49.680;20.074;2023-04-06T07:56:34;97353.86;;;0.00;61.41
34205;BME280;20471;49.680;20.074;2023-04-06T07:59:02;97353.34;;;0.04;61.32
34205;BME280;20471;49.680;20.074;2023-04-06T08:01:30;97352.00;;;-0.08;60.96
34205;BME280;20471;49.680;20.074;2023-04-06T08:03:59;97354.06;;;-0.20;61.05
34205;BME280;20471;49.680;20.074;2023-04-06T08:06:28;97349.34;;;-0.24;61.06
34205;BME280;20471;49.680;20.074;2023-04-06T08:08:57;97350.17;;;-0.22;61.17
34205;BME280;20471;49.680;20.074;2023-04-06T08:11:25;97353.19;;;-0.24;61.06
34205;BME280;20471;49.680;20.074;2023-04-06T08:13:53;97349.27;;;-0.24;61.08
34205;BME280;20471;49.680;20.074;2023-04-06T08:16:23;97349.77;;;-0.25;61.16
34205;BME280;20471;49.680;20.074;2023-04-06T08:18:52;97342.45;;;-0.23;61.11
34205;BME280;20471;49.680;20.074;2023-04-06T08:21:20;97339.88;;;-0.18;61.15
34205;BME280;20471;49.680;20.074;2023-04-06T08:23:48;97338.83;;;-0.14;61.22
34205;BME280;20471;49.680;20.074;2023-04-06T08:26:16;97340.54;;;-0.18;61.30
34205;BME280;20471;49.680;20.074;2023-04-06T08:28:44;97344.71;;;-0.13;61.18
34205;BME280;20471;49.680;20.074;2023-04-06T08:31:13;97344.60;;;-0.08;61.12
34205;BME280;20471;49.680;20.074;2023-04-06T08:33:41;97345.79;;;-0.02;61.13
34205;BME280;20471;49.680;20.074;2023-04-06T08:36:11;97346.71;;;-0.07;61.11
34205;BME280;20471;49.680;20.074;2023-04-06T08:38:40;97346.75;;;-0.11;61.13
34205;BME280;20471;49.680;20.074;2023-04-06T08:41:10;97347.79;;;-0.10;61.42
34205;BME280;20471;49.680;20.074;2023-04-06T08:43:43;97345.52;;;-0.12;61.31
34205;BME280;20471;49.680;20.074;2023-04-06T08:46:12;97342.58;;;-0.17;61.30
34205;BME280;20471;49.680;20.074;2023-04-06T08:48:42;97341.40;;;-0.23;61.41
34205;BME280;20471;49.680;20.074;2023-04-06T08:51:10;97338.60;;;-0.21;61.39
34205;BME280;20471;49.680;20.074;2023-04-06T08:53:39;97332.45;;;-0.22;61.41
34205;BME280;20471;49.680;20.074;2023-04-06T08:56:09;97330.78;;;-0.23;61.62
34205;BME280;20471;49.680;20.074;2023-04-06T08:58:39;97328.23;;;-0.16;61.68
34205;BME280;20471;49.680;20.074;2023-04-06T09:01:09;97328.78;;;-0.17;61.76
34205;BME280;20471;49.680;20.074;2023-04-06T09:03:40;97328.04;;;-0.20;61.96
34205;BME280;20471;49.680;20.074;2023-04-06T09:06:09;97327.14;;;-0.20;62.00
34205;BME280;20471;49.680;20.074;2023-04-06T09:08:39;97324.04;;;-0.17;62.04
34205;BME280;20471;49.680;20.074;2023-04-06T09:11:08;97321.77;;;-0.10;61.71
34205;BME280;20471;49.680;20.074;2023-04-06T09:13:46;97318.55;;;-0.06;61.64
34205;BME280;20471;49.680;20.074;2023-04-06T09:16:15;97316.05;;;-0.00;61.58
34205;BME280;20471;49.680;20.074;2023-04-06T09:18:44;97313.55;;;0.08;61.86
34205;BME280;20471;49.680;20.074;2023-04-06T09:21:12;97315.89;;;0.12;61.83
34205;BME280;20471;49.680;20.074;2023-04-06T09:23:41;97314.35;;;0.21;61.78
34205;BME280;20471;49.680;20.074;2023-04-06T09:26:13;97313.31;;;0.27;61.92
34205;BME280;20471;49.680;20.074;2023-04-06T09:28:47;97310.32;;;0.27;61.58
34205;BME280;20471;49.680;20.074;2023-04-06T09:31:24;97309.90;;;0.26;61.64
34205;BME280;20471;49.680;20.074;2023-04-06T09:33:53;97309.03;;;0.37;61.58
34205;BME280;20471;49.680;20.074;2023-04-06T09:36:35;97310.20;;;0.48;61.43
34205;BME280;20471;49.680;20.074;2023-04-06T09:39:05;97307.95;;;0.39;61.12
34205;BME280;20471;49.680;20.074;2023-04-06T09:41:35;97306.96;;;0.20;61.43
34205;BME280;20471;49.680;20.074;2023-04-06T09:46:36;97306.43;;;0.06;62.24
34205;BME280;20471;49.680;20.074;2023-04-06T09:49:06;97306.80;;;0.04;62.79
34205;BME280;20471;49.680;20.074;2023-04-06T09:51:40;97305.25;;;0.09;62.94
34205;BME280;20471;49.680;20.074;2023-04-06T09:54:09;97307.87;;;0.18;63.12
34205;BME280;20471;49.680;20.074;2023-04-06T09:56:45;97305.05;;;0.31;63.05
34205;BME280;20471;49.680;20.074;2023-04-06T09:59:21;97302.08;;;0.36;63.12
34205;BME280;20471;49.680;20.074;2023-04-06T10:01:55;97307.97;;;0.26;63.47
34205;BME280;20471;49.680;20.074;2023-04-06T10:04:41;97302.09;;;0.25;63.71
34205;BME280;20471;49.680;20.074;2023-04-06T10:07:11;97305.13;;;0.17;63.96
34205;BME280;20471;49.680;20.074;2023-04-06T10:09:39;97307.16;;;0.20;63.94
34205;BME280;20471;49.680;20.074;2023-04-06T10:12:08;97307.20;;;0.30;64.05
34205;BME280;20471;49.680;20.074;2023-04-06T10:14:37;97308.94;;;0.38;63.95
34205;BME280;20471;49.680;20.074;2023-04-06T10:17:05;97310.84;;;0.36;64.30
34205;BME280;20471;49.680;20.074;2023-04-06T10:19:46;97309.68;;;0.39;64.42
34205;BME280;20471;49.680;20.074;2023-04-06T10:22:24;97309.70;;;0.47;64.50
34205;BME280;20471;49.680;20.074;2023-04-06T10:24:54;97306.23;;;0.53;64.44
34205;BME280;20471;49.680;20.074;2023-04-06T10:27:29;97304.84;;;0.58;64.42
34205;BME280;20471;49.680;20.074;2023-04-06T10:30:02;97303.27;;;0.65;64.60
34205;BME280;20471;49.680;20.074;2023-04-06T10:32:35;97303.05;;;0.70;64.61
34205;BME280;20471;49.680;20.074;2023-04-06T10:35:08;97300.71;;;0.71;64.55
34205;BME280;20471;49.680;20.074;2023-04-06T10:37:52;97302.44;;;0.71;64.60
34205;BME280;20471;49.680;20.074;2023-04-06T10:40:24;97302.02;;;0.70;64.68
34205;BME280;20471;49.680;20.074;2023-04-06T10:42:54;97302.98;;;0.69;64.63
34205;BME280;20471;49.680;20.074;2023-04-06T10:45:25;97297.77;;;0.67;64.83
34205;BME280;20471;49.680;20.074;2023-04-06T10:47:53;97295.22;;;0.65;64.94
34205;BME280;20471;49.680;20.074;2023-04-06T10:50:23;97293.46;;;0.65;65.02
34205;BME280;20471;49.680;20.074;2023-04-06T10:53:02;97291.70;;;0.67;65.20
34205;BME280;20471;49.680;20.074;2023-04-06T10:55:30;97289.34;;;0.68;65.22
34205;BME280;20471;49.680;20.074;2023-04-06T10:57:59;97290.51;;;0.65;65.35
34205;BME280;20471;49.680;20.074;2023-04-06T11:00:27;97286.30;;;0.59;65.27
34205;BME280;20471;49.680;20.074;2023-04-06T11:03:01;97279.73;;;0.52;65.52
34205;BME280;20471;49.680;20.074;2023-04-06T11:05:29;97281.60;;;0.50;65.77
34205;BME280;20471;49.680;20.074;2023-04-06T11:07:57;97280.67;;;0.43;65.98
34205;BME280;20471;49.680;20.074;2023-04-06T11:10:26;97280.02;;;0.39;66.04
34205;BME280;20471;49.680;20.074;2023-04-06T11:12:54;97280.98;;;0.36;66.25
34205;BME280;20471;49.680;20.074;2023-04-06T11:15:22;97285.27;;;0.35;66.30
34205;BME280;20471;49.680;20.074;2023-04-06T11:17:51;97282.60;;;0.35;66.51
34205;BME280;20471;49.680;20.074;2023-04-06T11:20:20;97284.88;;;0.34;66.61
34205;BME280;20471;49.680;20.074;2023-04-06T11:22:49;97283.92;;;0.35;66.88
34205;BME280;20471;49.680;20.074;2023-04-06T11:25:18;97281.20;;;0.39;67.13
34205;BME280;20471;49.680;20.074;2023-04-06T11:27:46;97278.16;;;0.43;67.36
34205;BME280;20471;49.680;20.074;2023-04-06T11:30:15;97275.25;;;0.44;67.24
34205;BME280;20471;49.680;20.074;2023-04-06T11:32:45;97271.77;;;0.43;67.35
34205;BME280;20471;49.680;20.074;2023-04-06T11:35:21;97271.90;;;0.44;67.43
34205;BME280;20471;49.680;20.074;2023-04-06T11:37:50;97267.43;;;0.41;67.44
34205;BME280;20471;49.680;20.074;2023-04-06T11:40:22;97267.05;;;0.35;67.48
34205;BME280;20471;49.680;20.074;2023-04-06T11:42:53;97270.34;;;0.34;67.72
34205;BME280;20471;49.680;20.074;2023-04-06T11:45:22;97270.05;;;0.25;67.91
34205;BME280;20471;49.680;20.074;2023-04-06T11:47:58;97267.45;;;0.23;68.08
34205;BME280;20471;49.680;20.074;2023-04-06T11:50:32;97272.20;;;0.26;68.16
34205;BME280;20471;49.680;20.074;2023-04-06T11:53:02;97270.63;;;0.30;68.30
34205;BME280;20471;49.680;20.074;2023-04-06T11:55:37;97267.86;;;0.34;68.35
34205;BME280;20471;49.680;20.074;2023-04-06T11:58:06;97263.80;;;0.38;68.59
34205;BME280;20471;49.680;20.074;2023-04-06T12:00:34;97259.70;;;0.44;68.55
34205;BME280;20471;49.680;20.074;2023-04-06T12:03:03;97258.95;;;0.48;68.54
34205;BME280;20471;49.680;20.074;2023-04-06T12:05:33;97258.44;;;0.51;68.43
34205;BME280;20471;49.680;20.074;2023-04-06T12:08:01;97258.20;;;0.57;68.67
34205;BME280;20471;49.680;20.074;2023-04-06T12:10:29;97255.02;;;0.66;68.66
34205;BME280;20471;49.680;20.074;2023-04-06T12:12:57;97251.11;;;0.75;68.58
34205;BME280;20471;49.680;20.074;2023-04-06T12:15:25;97256.84;;;0.77;68.58
34205;BME280;20471;49.680;20.074;2023-04-06T12:17:53;97255.05;;;0.78;68.33
34205;BME280;20471;49.680;20.074;2023-04-06T12:20:21;97253.52;;;0.80;68.25
34205;BME280;20471;49.680;20.074;2023-04-06T12:22:50;97254.34;;;0.84;68.20
34205;BME280;20471;49.680;20.074;2023-04-06T12:25:18;97253.02;;;0.85;68.22
34205;BME280;20471;49.680;20.074;2023-04-06T12:27:46;97250.42;;;0.85;68.25
34205;BME280;20471;49.680;20.074;2023-04-06T12:30:14;97247.39;;;0.85;68.25
34205;BME280;20471;49.680;20.074;2023-04-06T12:32:43;97243.14;;;0.88;68.35
34205;BME280;20471;49.680;20.074;2023-04-06T12:35:11;97239.19;;;0.92;68.42
34205;BME280;20471;49.680;20.074;2023-04-06T12:37:42;97237.60;;;0.96;68.34
34205;BME280;20471;49.680;20.074;2023-04-06T12:40:10;97235.17;;;0.99;68.37
34205;BME280;20471;49.680;20.074;2023-04-06T12:42:39;97234.13;;;1.05;68.53
34205;BME280;20471;49.680;20.074;2023-04-06T12:45:08;97230.52;;;1.16;68.55
34205;BME280;20471;49.680;20.074;2023-04-06T12:47:37;97229.58;;;1.21;68.47
34205;BME280;20471;49.680;20.074;2023-04-06T12:50:05;97229.52;;;1.21;68.36
34205;BME280;20471;49.680;20.074;2023-04-06T12:52:34;97225.35;;;1.22;68.23
34205;BME280;20471;49.680;20.074;2023-04-06T12:55:03;97225.27;;;1.18;68.21
34205;BME280;20471;49.680;20.074;2023-04-06T12:57:31;97230.77;;;1.16;68.37
34205;BME280;20471;49.680;20.074;2023-04-06T12:59:59;97230.77;;;1.12;68.56
34205;BME280;20471;49.680;20.074;2023-04-06T13:02:28;97227.00;;;1.09;68.79
34205;BME280;20471;49.680;20.074;2023-04-06T13:04:56;97224.71;;;1.07;69.00